createdAt,value
2022-09-12T00:00:07.471Z,23.67
2022-09-12T00:02:35.573Z,23.77
2022-09-12T00:05:03.056Z,22.17
2022-09-12T00:07:30.802Z,21.37
2022-09-12T00:09:58.645Z,20.63
2022-09-12T00:12:26.364Z,20.47
2022-09-12T00:14:54.005Z,19.67
2022-09-12T00:17:23.124Z,20.57
2022-09-12T00:19:50.994Z,19.60
2022-09-12T00:22:18.677Z,20.07
2022-09-12T00:24:47.438Z,20.90
2022-09-12T00:27:15.408Z,22.33
2022-09-12T00:29:43.380Z,21.93
2022-09-12T00:32:11.259Z,21.87
2022-09-12T00:34:40.726Z,22.40
2022-09-12T00:37:08.391Z,20.80
2022-09-12T00:39:36.055Z,21.10
2022-09-12T00:42:03.838Z,22.77
2022-09-12T00:44:58.180Z,23.00
2022-09-12T00:47:28.094Z,23.50
2022-09-12T00:50:02.501Z,23.53
2022-09-12T00:52:32.934Z,22.07
2022-09-12T00:55:03.902Z,23.30
2022-09-12T00:57:33.702Z,23.87
2022-09-12T01:00:04.671Z,23.83
2022-09-12T01:02:32.273Z,22.37
2022-09-12T01:05:01.775Z,22.43
2022-09-12T01:07:29.724Z,21.13
2022-09-12T01:09:57.571Z,20.90
2022-09-12T01:12:25.596Z,20.50
2022-09-12T01:14:53.385Z,20.13
2022-09-12T01:17:21.133Z,19.13
2022-09-12T01:20:03.726Z,18.87
2022-09-12T01:22:40.948Z,18.80
2022-09-12T01:25:12.895Z,18.77
2022-09-12T01:27:54.538Z,18.60
2022-09-12T01:30:25.364Z,17.17
2022-09-12T01:32:56.963Z,17.70
2022-09-12T01:35:26.844Z,18.77
2022-09-12T01:38:00.873Z,18.17
2022-09-12T01:40:32.730Z,17.63
2022-09-12T01:43:06.076Z,18.53
2022-09-12T01:45:40.669Z,19.70
2022-09-12T01:48:11.961Z,19.07
2022-09-12T01:50:41.496Z,19.83
2022-09-12T01:53:11.295Z,19.30
2022-09-12T01:55:42.851Z,20.03
2022-09-12T01:58:13.755Z,18.77
2022-09-12T02:00:45.242Z,20.60
2022-09-12T02:03:15.584Z,19.37
2022-09-12T02:05:46.010Z,20.73
2022-09-12T02:08:16.358Z,20.50
2022-09-12T02:10:46.386Z,21.10
2022-09-12T02:13:15.947Z,19.77
2022-09-12T02:15:47.326Z,18.90
2022-09-12T02:18:18.193Z,19.57
2022-09-12T02:20:49.171Z,20.30
2022-09-12T02:23:18.571Z,20.40
2022-09-12T02:25:47.772Z,19.03
2022-09-12T02:28:17.558Z,20.13
2022-09-12T02:30:50.919Z,18.87
2022-09-12T02:33:21.855Z,18.87
2022-09-12T02:35:52.167Z,18.13
2022-09-12T02:38:23.763Z,19.67
2022-09-12T02:40:51.543Z,19.00
2022-09-12T02:43:19.156Z,18.70
2022-09-12T02:45:48.300Z,16.90
2022-09-12T02:48:18.221Z,18.53
2022-09-12T02:50:46.179Z,19.90
2022-09-12T02:53:13.934Z,20.13
2022-09-12T02:55:42.560Z,18.83
2022-09-12T02:58:12.019Z,19.93
2022-09-12T03:00:44.370Z,20.70
2022-09-12T03:03:21.941Z,20.90
2022-09-12T03:05:55.725Z,23.40
2022-09-12T03:08:34.707Z,23.43
2022-09-12T03:11:12.080Z,27.00
2022-09-12T03:13:41.899Z,28.53
2022-09-12T03:16:14.240Z,28.53
2022-09-12T03:18:51.710Z,29.77
2022-09-12T03:21:23.127Z,28.37
2022-09-12T03:23:58.213Z,28.67
2022-09-12T03:26:29.262Z,30.50
2022-09-12T03:28:57.831Z,30.83
2022-09-12T03:31:25.400Z,30.33
2022-09-12T03:33:54.541Z,30.50
2022-09-12T03:36:24.008Z,30.23
2022-09-12T03:38:51.684Z,31.20
2022-09-12T03:41:19.765Z,34.43
2022-09-12T03:43:47.710Z,30.67
2022-09-12T03:46:15.445Z,33.83
2022-09-12T03:48:43.251Z,33.70
2022-09-12T03:51:12.552Z,32.70
2022-09-12T03:53:40.279Z,30.83
2022-09-12T03:56:08.685Z,30.63
2022-09-12T03:58:36.756Z,29.20
2022-09-12T04:01:08.168Z,26.60
2022-09-12T04:03:35.866Z,22.77
2022-09-12T04:06:03.528Z,19.97
2022-09-12T04:08:32.656Z,18.20
2022-09-12T04:11:03.677Z,20.10
2022-09-12T04:13:31.531Z,19.37
2022-09-12T04:15:59.517Z,19.03
2022-09-12T04:18:27.485Z,19.50
2022-09-12T04:20:55.295Z,19.00
2022-09-12T04:23:22.984Z,20.37
2022-09-12T04:25:59.293Z,25.63
2022-09-12T04:28:29.089Z,25.43
2022-09-12T04:30:57.931Z,26.33
2022-09-12T04:33:26.927Z,25.53
2022-09-12T04:35:54.602Z,27.47
2022-09-12T04:38:22.284Z,28.00
2022-09-12T04:40:50.086Z,28.20
2022-09-12T04:43:19.145Z,26.70
2022-09-12T04:45:46.932Z,25.23
2022-09-12T04:48:15.213Z,24.93
2022-09-12T04:50:42.929Z,25.53
2022-09-12T04:53:11.186Z,27.57
2022-09-12T04:55:39.194Z,29.97
2022-09-12T04:58:06.931Z,32.43
2022-09-12T05:00:36.052Z,31.73
2022-09-12T05:03:03.709Z,34.03
2022-09-12T05:05:31.369Z,31.57
2022-09-12T05:08:01.154Z,30.63
2022-09-12T05:10:29.132Z,29.73
2022-09-12T05:12:56.741Z,29.77
2022-09-12T05:15:25.131Z,28.00
2022-09-12T05:17:54.163Z,30.60
2022-09-12T05:20:22.356Z,26.63
2022-09-12T05:22:50.201Z,25.63
2022-09-12T05:25:17.896Z,24.87
2022-09-12T05:27:48.635Z,22.47
2022-09-12T05:30:20.964Z,22.40
2022-09-12T05:32:48.994Z,20.37
2022-09-12T05:35:18.707Z,20.17
2022-09-12T05:37:46.422Z,20.43
2022-09-12T05:40:18.917Z,20.57
2022-09-12T05:42:46.673Z,19.47
2022-09-12T05:45:16.931Z,20.23
2022-09-12T05:47:47.719Z,22.43
2022-09-12T05:50:15.649Z,24.80
2022-09-12T05:52:44.804Z,22.43
2022-09-12T05:55:12.783Z,23.37
2022-09-12T05:57:40.786Z,24.97
2022-09-12T06:00:10.020Z,22.90
2022-09-12T06:02:37.900Z,20.63
2022-09-12T06:05:06.026Z,21.30
2022-09-12T06:07:33.718Z,23.87
2022-09-12T06:10:02.904Z,24.43
2022-09-12T06:12:31.008Z,23.10
2022-09-12T06:14:58.792Z,21.70
2022-09-12T06:17:26.829Z,19.70
2022-09-12T06:19:55.478Z,20.90
2022-09-12T06:22:23.213Z,18.83
2022-09-12T06:24:53.777Z,18.10
2022-09-12T06:27:26.735Z,18.40
2022-09-12T06:29:54.469Z,20.37
2022-09-12T06:32:22.080Z,21.63
2022-09-12T06:34:49.677Z,18.90
2022-09-12T06:37:17.472Z,18.00
2022-09-12T06:39:45.160Z,17.10
2022-09-12T06:42:14.974Z,18.13
2022-09-12T06:44:45.055Z,19.30
2022-09-12T06:47:13.393Z,23.33
2022-09-12T06:49:41.332Z,23.93
2022-09-12T06:52:09.286Z,27.73
2022-09-12T06:54:36.907Z,24.70
2022-09-12T06:57:05.009Z,23.87
2022-09-12T06:59:32.667Z,19.87
2022-09-12T07:02:02.010Z,23.00
2022-09-12T07:04:29.836Z,20.73
2022-09-12T07:06:57.974Z,18.10
2022-09-12T07:09:26.473Z,21.90
2022-09-12T07:11:54.777Z,20.50
2022-09-12T07:14:22.836Z,19.40
2022-09-12T07:16:50.957Z,19.40
2022-09-12T07:19:20.300Z,22.37
2022-09-12T07:21:48.020Z,20.87
2022-09-12T07:24:15.902Z,20.23
2022-09-12T07:26:44.173Z,23.03
2022-09-12T07:32:03.251Z,30.03
2022-09-12T07:34:32.634Z,29.27
2022-09-12T07:37:00.642Z,31.57
2022-09-12T07:39:28.372Z,38.57
2022-09-12T07:41:56.315Z,45.07
2022-09-12T07:44:23.965Z,58.27
2022-09-12T07:46:52.739Z,57.83
2022-09-12T07:49:20.844Z,62.73
2022-09-12T07:51:50.045Z,66.10
2022-09-12T07:54:18.011Z,69.90
2022-09-12T07:56:45.948Z,77.50
2022-09-12T07:59:13.772Z,96.38
2022-09-12T08:01:41.682Z,93.65
2022-09-12T08:04:09.923Z,94.38
2022-09-12T08:06:37.544Z,92.60
2022-09-12T08:09:08.280Z,94.90
2022-09-12T08:11:36.209Z,109.32
2022-09-12T08:14:06.075Z,95.68
2022-09-12T08:16:34.225Z,101.55
2022-09-12T08:19:02.656Z,97.03
2022-09-12T08:21:31.555Z,108.63
2022-09-12T08:24:01.044Z,104.65
2022-09-12T08:26:30.691Z,90.28
2022-09-12T08:28:59.162Z,93.07
2022-09-12T08:31:28.425Z,82.72
2022-09-12T08:33:56.903Z,85.28
2022-09-12T08:36:26.017Z,94.28
2022-09-12T08:38:59.677Z,95.55
2022-09-12T08:41:30.631Z,87.72
2022-09-12T08:44:13.799Z,92.47
2022-09-12T08:46:45.426Z,100.82
2022-09-12T08:49:14.561Z,98.97
2022-09-12T08:51:43.155Z,99.13
2022-09-12T08:54:20.698Z,98.97
2022-09-12T08:56:49.402Z,76.45
2022-09-12T08:59:18.426Z,82.57
2022-09-12T09:01:46.778Z,93.95
2022-09-12T09:04:21.696Z,100.75
2022-09-12T09:06:59.635Z,98.50
2022-09-12T09:09:33.409Z,80.75
2022-09-12T09:12:06.756Z,87.15
2022-09-12T09:14:49.947Z,107.32
2022-09-12T09:17:20.784Z,93.97
2022-09-12T09:19:51.180Z,93.78
2022-09-12T09:22:26.468Z,90.57
2022-09-12T09:25:06.692Z,98.25
2022-09-12T09:27:41.143Z,81.82
2022-09-12T09:30:14.685Z,65.18
2022-09-12T09:32:43.429Z,65.55
2022-09-12T09:35:17.358Z,73.50
2022-09-12T09:37:50.445Z,64.80
2022-09-12T09:40:24.616Z,64.53
2022-09-12T09:42:55.448Z,67.45
2022-09-12T09:45:27.874Z,71.20
2022-09-12T09:47:58.850Z,59.50
2022-09-12T09:50:26.851Z,61.15
2022-09-12T09:52:55.444Z,70.13
2022-09-12T09:55:25.224Z,63.22
2022-09-12T09:57:53.822Z,46.58
2022-09-12T10:00:25.889Z,51.95
2022-09-12T10:03:25.277Z,56.10
2022-09-12T10:05:53.906Z,63.10
2022-09-12T10:08:23.036Z,62.55
2022-09-12T10:10:58.440Z,64.15
2022-09-12T10:13:32.076Z,58.75
2022-09-12T10:16:00.711Z,50.45
2022-09-12T10:18:38.890Z,59.00
2022-09-12T10:21:17.149Z,61.65
2022-09-12T10:23:45.121Z,57.83
2022-09-12T10:26:14.143Z,60.65
2022-09-12T10:28:43.419Z,67.18
2022-09-12T10:31:12.777Z,80.20
2022-09-12T10:33:43.345Z,99.22
2022-09-12T10:36:11.066Z,97.80
2022-09-12T10:38:39.751Z,74.82
2022-09-12T10:41:08.618Z,77.30
2022-09-12T10:43:37.362Z,74.47
2022-09-12T10:46:19.881Z,70.10
2022-09-12T10:48:50.017Z,63.63
2022-09-12T10:51:27.677Z,61.28
2022-09-12T10:53:56.842Z,60.42
2022-09-12T10:56:25.422Z,57.75
2022-09-12T10:59:01.172Z,62.65
2022-09-12T11:01:40.384Z,63.35
2022-09-12T11:04:25.355Z,66.25
2022-09-12T11:06:58.855Z,65.78
2022-09-12T11:09:32.832Z,63.60
2022-09-12T11:12:04.675Z,63.05
2022-09-12T11:14:40.135Z,65.20
2022-09-12T11:17:13.633Z,64.30
2022-09-12T11:19:51.045Z,61.63
2022-09-12T11:22:32.015Z,60.80
2022-09-12T11:25:08.087Z,60.00
2022-09-12T11:27:43.766Z,60.10
2022-09-12T11:30:12.957Z,55.28
2022-09-12T11:33:03.165Z,61.72
2022-09-12T11:35:33.371Z,53.50
2022-09-12T11:38:07.722Z,53.80
2022-09-12T11:40:39.036Z,50.92
2022-09-12T11:43:09.150Z,51.25
2022-09-12T11:45:39.447Z,48.63
2022-09-12T11:48:08.783Z,39.75
2022-09-12T11:50:38.027Z,34.33
2022-09-12T11:53:12.457Z,34.30
2022-09-12T11:55:46.176Z,33.25
2022-09-12T11:58:16.844Z,34.40
2022-09-12T12:00:47.474Z,36.88
2022-09-12T12:03:17.581Z,36.10
2022-09-12T12:05:52.237Z,34.58
2022-09-12T12:08:20.426Z,33.90
2022-09-12T12:10:51.427Z,33.10
2022-09-12T12:13:22.152Z,31.70
2022-09-12T12:15:52.110Z,31.55
2022-09-12T12:18:21.701Z,32.30
2022-09-12T12:20:51.248Z,31.77
2022-09-12T12:23:25.998Z,32.15
2022-09-12T12:25:56.132Z,29.35
2022-09-12T12:28:42.458Z,30.48
2022-09-12T12:31:13.531Z,29.15
2022-09-12T12:34:01.865Z,28.45
2022-09-12T12:36:50.545Z,29.60
2022-09-12T12:39:48.558Z,28.60
2022-09-12T12:42:34.998Z,29.27
2022-09-12T12:45:04.909Z,29.20
2022-09-12T12:47:34.169Z,29.30
2022-09-12T12:50:06.144Z,30.88
2022-09-12T12:52:41.414Z,29.88
2022-09-12T12:55:16.383Z,31.15
2022-09-12T12:57:51.301Z,32.85
2022-09-12T13:00:34.618Z,30.70
2022-09-12T13:03:04.067Z,32.45
2022-09-12T13:05:39.510Z,33.70
2022-09-12T13:08:10.414Z,30.05
2022-09-12T13:10:38.956Z,31.20
2022-09-12T13:13:08.643Z,29.98
2022-09-12T13:15:51.311Z,32.75
2022-09-12T13:18:23.167Z,29.85
2022-09-12T13:20:53.498Z,30.75
2022-09-12T13:23:25.137Z,34.35
2022-09-12T13:25:56.554Z,29.92
2022-09-12T13:28:24.315Z,29.77
2022-09-12T13:30:59.166Z,31.80
2022-09-12T13:33:31.390Z,34.35
2022-09-12T13:36:33.936Z,31.67
2022-09-12T13:39:19.663Z,32.85
2022-09-12T13:42:03.237Z,30.48
2022-09-12T13:44:31.938Z,30.95
2022-09-12T13:47:02.305Z,30.17
2022-09-12T13:49:33.069Z,31.27
2022-09-12T13:52:02.070Z,33.92
2022-09-12T13:54:30.122Z,34.25
2022-09-12T13:56:58.000Z,32.25
2022-09-12T13:59:25.977Z,35.67
2022-09-12T14:01:53.607Z,38.97
2022-09-12T14:04:40.947Z,37.45
2022-09-12T14:07:14.133Z,35.90
2022-09-12T14:09:42.109Z,35.88
2022-09-12T14:12:25.946Z,35.05
2022-09-12T14:14:54.236Z,32.65
2022-09-12T14:17:25.427Z,31.23
2022-09-12T14:19:55.063Z,31.23
2022-09-12T14:22:22.941Z,29.08
2022-09-12T14:24:52.138Z,30.27
2022-09-12T14:27:22.051Z,27.23
2022-09-12T14:29:54.021Z,30.92
2022-09-12T14:32:23.965Z,30.13
2022-09-12T14:35:21.377Z,33.05
2022-09-12T14:37:51.511Z,32.25
2022-09-12T14:40:20.610Z,33.58
2022-09-12T14:42:49.649Z,33.38
2022-09-12T14:45:19.115Z,35.67
2022-09-12T14:47:50.877Z,33.60
2022-09-12T14:50:20.201Z,31.97
2022-09-12T14:52:47.849Z,32.13
2022-09-12T14:55:25.251Z,29.83
2022-09-12T14:58:08.341Z,29.30
2022-09-12T15:00:36.272Z,27.60
2022-09-12T15:03:21.489Z,30.43
2022-09-12T15:05:50.370Z,27.73
2022-09-12T15:08:18.136Z,27.97
2022-09-12T15:10:47.838Z,31.10
2022-09-12T15:13:17.112Z,28.87
2022-09-12T15:15:45.971Z,31.10
2022-09-12T15:18:13.968Z,29.37
2022-09-12T15:20:43.200Z,29.90
2022-09-12T15:23:17.877Z,30.57
2022-09-12T15:25:46.884Z,27.37
2022-09-12T15:28:18.291Z,27.13
2022-09-12T15:30:46.609Z,29.87
2022-09-12T15:33:14.543Z,29.20
2022-09-12T15:35:42.839Z,27.97
2022-09-12T15:38:11.885Z,29.90
2022-09-12T15:40:39.896Z,29.73
2022-09-12T15:43:10.903Z,27.87
2022-09-12T15:45:38.607Z,28.63
2022-09-12T15:48:06.834Z,30.47
2022-09-12T15:50:34.632Z,29.27
2022-09-12T15:53:03.116Z,31.50
2022-09-12T15:55:32.201Z,30.70
2022-09-12T15:58:04.852Z,31.10
2022-09-12T16:00:37.170Z,30.73
2022-09-12T16:03:05.749Z,29.53
2022-09-12T16:05:34.434Z,33.17
2022-09-12T16:08:02.385Z,30.63
2022-09-12T16:10:31.883Z,31.20
2022-09-12T16:12:59.823Z,31.67
2022-09-12T16:15:27.535Z,32.33
2022-09-12T16:17:56.550Z,33.87
2022-09-12T16:20:24.683Z,29.60
2022-09-12T16:22:52.939Z,34.53
2022-09-12T16:28:42.140Z,26.97
2022-09-12T16:31:11.488Z,33.33
2022-09-12T16:33:40.703Z,38.73
2022-09-12T16:36:09.268Z,29.07
2022-09-12T16:38:41.166Z,29.40
2022-09-12T16:41:08.943Z,29.10
2022-09-12T16:43:38.021Z,26.87
2022-09-12T16:46:06.537Z,31.00
2022-09-12T16:48:34.702Z,29.07
2022-09-12T16:51:05.343Z,30.43
2022-09-12T16:53:33.405Z,33.77
2022-09-12T16:56:00.991Z,34.17
2022-09-12T16:58:28.665Z,36.60
2022-09-12T17:01:03.481Z,37.57
2022-09-12T17:03:31.780Z,41.03
2022-09-12T17:05:59.852Z,43.23
2022-09-12T17:08:29.127Z,43.13
2022-09-12T17:11:00.945Z,42.47
2022-09-12T17:13:41.332Z,41.70
2022-09-12T17:16:17.133Z,40.27
2022-09-12T17:18:46.931Z,44.20
2022-09-12T17:21:15.378Z,47.97
2022-09-12T17:23:44.903Z,45.83
2022-09-12T17:26:13.155Z,47.47
2022-09-12T17:29:17.819Z,48.60
2022-09-12T17:31:45.781Z,44.97
2022-09-12T17:34:16.475Z,47.83
2022-09-12T17:36:45.374Z,43.93
2022-09-12T17:39:15.130Z,38.77
2022-09-12T17:41:43.158Z,42.27
2022-09-12T17:44:11.903Z,41.23
2022-09-12T17:46:40.132Z,41.27
2022-09-12T17:49:08.693Z,36.17
2022-09-12T17:51:36.721Z,35.03
2022-09-12T17:54:06.721Z,35.10
2022-09-12T17:56:37.292Z,34.60
2022-09-12T17:59:05.885Z,34.83
2022-09-12T18:01:51.471Z,32.77
2022-09-12T18:04:20.122Z,32.93
2022-09-12T18:06:49.188Z,31.77
2022-09-12T18:09:18.034Z,33.73
2022-09-12T18:11:48.161Z,28.47
2022-09-12T18:14:17.225Z,31.03
2022-09-12T18:16:45.986Z,29.60
2022-09-12T18:19:14.189Z,29.47
2022-09-12T18:21:41.970Z,25.90
2022-09-12T18:24:10.394Z,26.73
2022-09-12T18:26:38.225Z,25.87
2022-09-12T18:29:08.146Z,27.17
2022-09-12T18:31:36.027Z,28.40
2022-09-12T18:34:03.868Z,27.53
2022-09-12T18:36:31.699Z,29.40
2022-09-12T18:39:00.203Z,30.47
2022-09-12T18:41:30.367Z,33.90
2022-09-12T18:43:59.625Z,34.53
2022-09-12T18:46:29.344Z,37.13
2022-09-12T18:48:58.239Z,37.83
2022-09-12T18:51:31.331Z,39.63
2022-09-12T18:53:59.613Z,43.17
2022-09-12T18:56:28.092Z,44.33
2022-09-12T18:58:56.761Z,46.43
2022-09-12T19:01:28.284Z,50.83
2022-09-12T19:03:59.221Z,56.03
2022-09-12T19:06:28.047Z,56.40
2022-09-12T19:08:56.680Z,62.13
2022-09-12T19:11:25.046Z,64.57
2022-09-12T19:13:54.070Z,63.73
2022-09-12T19:16:23.578Z,65.37
2022-09-12T19:18:52.543Z,67.33
2022-09-12T19:21:24.785Z,70.20
2022-09-12T19:23:54.215Z,64.93
2022-09-12T19:26:22.485Z,66.43
2022-09-12T19:28:50.917Z,61.27
2022-09-12T19:31:20.387Z,64.50
2022-09-12T19:33:49.137Z,63.77
2022-09-12T19:36:41.184Z,58.87
2022-09-12T19:39:07.432Z,55.33
2022-09-12T19:41:35.861Z,44.83
2022-09-12T19:44:04.025Z,40.80
2022-09-12T19:46:32.323Z,50.33
2022-09-12T19:49:00.408Z,43.47
2022-09-12T19:51:28.272Z,47.67
2022-09-12T19:53:56.110Z,37.23
2022-09-12T19:56:25.205Z,41.57
2022-09-12T19:58:56.455Z,41.50
2022-09-12T20:01:25.833Z,39.30
2022-09-12T20:03:54.094Z,34.37
2022-09-12T20:06:21.752Z,30.93
2022-09-12T20:08:49.694Z,33.70
2022-09-12T20:11:18.606Z,31.17
2022-09-12T20:13:47.922Z,27.87
2022-09-12T20:16:21.359Z,30.77
2022-09-12T20:18:54.849Z,27.07
2022-09-12T20:21:25.001Z,27.13
2022-09-12T20:23:52.994Z,25.30
2022-09-12T20:26:21.048Z,23.63
2022-09-12T20:28:52.215Z,25.10
2022-09-12T20:31:20.065Z,23.33
2022-09-12T20:33:51.709Z,26.43
2022-09-12T20:36:20.763Z,24.10
2022-09-12T20:38:49.632Z,22.97
2022-09-12T20:41:18.490Z,20.73
2022-09-12T20:43:46.598Z,20.37
2022-09-12T20:46:21.401Z,19.87
2022-09-12T20:48:51.341Z,19.60
2022-09-12T20:51:19.233Z,19.23
2022-09-12T20:53:46.996Z,20.17
2022-09-12T20:56:15.214Z,19.07
2022-09-12T20:58:44.590Z,17.97
2022-09-12T21:01:13.285Z,18.13
2022-09-12T21:03:43.108Z,17.20
2022-09-12T21:06:12.569Z,17.20
2022-09-12T21:08:40.592Z,16.60
2022-09-12T21:11:08.213Z,15.77
2022-09-12T21:13:36.522Z,16.07
2022-09-12T21:16:05.741Z,16.70
2022-09-12T21:18:37.508Z,14.63
2022-09-12T21:21:06.944Z,15.57
2022-09-12T21:23:35.043Z,16.67
2022-09-12T21:26:02.928Z,16.20
2022-09-12T21:28:31.123Z,15.23
2022-09-12T21:30:58.762Z,14.43
2022-09-12T21:33:27.000Z,15.47
2022-09-12T21:35:55.169Z,14.63
2022-09-12T21:38:24.957Z,15.80
2022-09-12T21:40:52.853Z,14.60
2022-09-12T21:43:20.570Z,14.43
2022-09-12T21:45:48.991Z,14.73
2022-09-12T21:48:16.764Z,14.77
2022-09-12T21:50:44.394Z,13.80
2022-09-12T21:53:12.110Z,15.40
2022-09-12T21:55:41.436Z,15.80
2022-09-12T21:58:09.594Z,14.93
2022-09-12T22:00:39.582Z,14.00
2022-09-12T22:03:07.553Z,15.57
2022-09-12T22:05:36.181Z,14.27
2022-09-12T22:08:05.061Z,15.83
2022-09-12T22:10:32.709Z,15.40
2022-09-12T22:13:02.268Z,15.87
2022-09-12T22:15:40.563Z,15.53
2022-09-12T22:18:08.862Z,15.77
2022-09-12T22:20:36.552Z,15.17
2022-09-12T22:23:25.226Z,16.47
2022-09-12T22:25:55.478Z,15.87
2022-09-12T22:28:25.301Z,18.27
2022-09-12T22:30:54.786Z,17.73
2022-09-12T22:33:22.972Z,16.57
2022-09-12T22:35:50.790Z,17.87
2022-09-12T22:38:18.406Z,17.57
2022-09-12T22:40:46.260Z,19.53
2022-09-12T22:43:14.535Z,19.03
2022-09-12T22:45:43.910Z,18.43
2022-09-12T22:48:11.670Z,18.97
2022-09-12T22:50:39.225Z,19.93
2022-09-12T22:53:06.795Z,18.60
2022-09-12T22:55:34.730Z,20.13
2022-09-12T22:58:03.892Z,19.63
2022-09-12T23:00:32.274Z,20.40
2022-09-12T23:03:01.926Z,20.27
2022-09-12T23:05:29.497Z,23.53
2022-09-12T23:07:57.039Z,22.43
2022-09-12T23:10:24.639Z,22.30
2022-09-12T23:12:52.153Z,22.27
2022-09-12T23:15:19.899Z,21.63
2022-09-12T23:17:47.534Z,23.67
2022-09-12T23:20:16.835Z,23.93
2022-09-12T23:22:44.382Z,24.33
2022-09-12T23:25:12.158Z,25.67
2022-09-12T23:27:40.668Z,26.03
2022-09-12T23:30:09.511Z,24.90
2022-09-12T23:32:37.488Z,27.50
2022-09-12T23:35:05.336Z,27.00
2022-09-12T23:37:34.816Z,29.43
2022-09-12T23:40:02.966Z,29.17
2022-09-12T23:42:30.648Z,31.83
2022-09-12T23:44:58.230Z,31.20
2022-09-12T23:47:25.818Z,30.57
2022-09-12T23:49:53.425Z,30.00
2022-09-12T23:52:21.504Z,30.70
2022-09-12T23:54:50.500Z,30.13
2022-09-12T23:57:18.210Z,31.63
2022-09-12T23:59:46.000Z,31.60
